Time;durP1;ratioP1;P1;durP2;ratioP2;P2;SDS_P1;SDS_P2;PMS_P1;PMS_P2;Temp;Humidity;BMP_temperature;BMP_pressure;BME280_temperature;BME280_humidity;BME280_pressure;Samples;Min_cycle;Max_cycle;Signal;HPM_P1;HPM_P2
2023/12/15 00:00:33;;;;;;;56.47;29.27;;;;;;;6.31;100.00;102659.47;5079354;28;20039;-74
2023/12/15 00:03:05;;;;;;;57.17;28.85;;;;;;;6.36;100.00;102662.06;5093364;28;20032;-76
2023/12/15 00:05:31;;;;;;;56.88;28.67;;;;;;;6.32;100.00;102666.53;5092269;28;20090;-75
2023/12/15 00:07:56;;;;;;;57.35;29.35;;;;;;;6.38;100.00;102673.53;5084413;27;20589;-74
2023/12/15 00:10:22;;;;;;;68.78;30.77;;;;;;;6.39;100.00;102681.44;5086565;28;20133;-74
2023/12/15 00:12:50;;;;;;;57.17;29.40;;;;;;;6.39;100.00;102685.88;5086964;27;20043;-75
2023/12/15 00:15:16;;;;;;;60.70;29.38;;;;;;;6.41;100.00;102689.34;5083587;27;20354;-74
2023/12/15 00:17:42;;;;;;;53.33;26.98;;;;;;;6.36;100.00;102689.44;5089063;28;20044;-75
2023/12/15 00:20:08;;;;;;;53.78;28.67;;;;;;;6.39;100.00;102697.34;5085511;28;20391;-74
2023/12/15 00:22:33;;;;;;;52.38;27.98;;;;;;;6.39;100.00;102696.47;5089488;28;20028;-75
2023/12/15 00:25:05;;;;;;;50.65;28.02;;;;;;;6.38;100.00;102702.66;5087283;28;20036;-74
2023/12/15 00:27:31;;;;;;;51.25;26.73;;;;;;;6.39;100.00;102700.00;5084572;27;20073;-75
2023/12/15 00:29:58;;;;;;;47.80;26.02;;;;;;;6.36;100.00;102707.97;5077222;28;20174;-74
2023/12/15 00:32:24;;;;;;;42.92;24.67;;;;;;;6.38;100.00;102718.56;5098317;27;20491;-74
2023/12/15 00:34:49;;;;;;;44.38;23.45;;;;;;;6.37;100.00;102715.00;5071140;28;20458;-74
2023/12/15 00:37:15;;;;;;;45.70;25.50;;;;;;;6.43;100.00;102712.28;5090030;28;20873;-74
2023/12/15 00:39:40;;;;;;;43.42;25.13;;;;;;;6.43;100.00;102714.94;5083881;27;20040;-74
2023/12/15 00:42:06;;;;;;;49.65;25.65;;;;;;;6.41;100.00;102718.50;5090137;27;20996;-76
2023/12/15 00:44:35;;;;;;;55.35;26.05;;;;;;;6.41;100.00;102719.38;5070247;28;20042;-77
2023/12/15 00:47:01;;;;;;;51.85;27.33;;;;;;;6.43;100.00;102722.91;5082535;28;20909;-74
2023/12/15 00:49:37;;;;;;;52.20;27.70;;;;;;;6.45;100.00;102729.03;5082127;27;20994;-74
2023/12/15 00:52:04;;;;;;;63.67;28.63;;;;;;;6.36;100.00;102731.81;5085438;28;20028;-74
2023/12/15 00:54:31;;;;;;;58.20;28.02;;;;;;;6.37;100.00;102725.59;5088889;28;20115;-74
2023/12/15 00:56:57;;;;;;;56.80;27.98;;;;;;;6.41;100.00;102722.03;5069411;28;20036;-77
2023/12/15 00:59:22;;;;;;;57.22;29.25;;;;;;;6.33;100.00;102720.41;5076816;28;20743;-76
2023/12/15 01:01:50;;;;;;;54.40;29.80;;;;;;;6.44;100.00;102723.75;5082267;28;20044;-76
2023/12/15 01:04:16;;;;;;;56.72;31.17;;;;;;;6.47;100.00;102719.25;5090745;28;20028;-75
2023/12/15 01:06:41;;;;;;;63.80;30.92;;;;;;;6.48;100.00;102725.47;5085808;28;20046;-75
2023/12/15 01:09:07;;;;;;;58.03;29.95;;;;;;;6.53;100.00;102713.03;5084427;28;20048;-76
2023/12/15 01:11:33;;;;;;;69.97;32.75;;;;;;;6.47;100.00;102719.25;5081345;28;20028;-76
2023/12/15 01:14:06;;;;;;;72.32;34.30;;;;;;;6.45;100.00;102731.69;5084823;28;20040;-75
2023/12/15 01:16:33;;;;;;;73.40;32.03;;;;;;;6.40;100.00;102735.31;5087829;28;20578;-76
2023/12/15 01:18:59;;;;;;;63.60;32.38;;;;;;;6.47;100.00;102744.91;5081935;28;20559;-76
2023/12/15 01:21:25;;;;;;;68.20;34.28;;;;;;;6.43;100.00;102738.78;5083452;28;20041;-76
2023/12/15 01:23:50;;;;;;;74.68;35.10;;;;;;;6.42;100.00;102744.09;5089266;28;20044;-75
2023/12/15 01:26:18;;;;;;;73.63;35.58;;;;;;;6.47;100.00;102745.78;5048156;28;20048;-75
2023/12/15 01:28:43;;;;;;;72.70;35.03;;;;;;;6.46;100.00;102757.28;5085831;28;20066;-75
2023/12/15 01:31:09;;;;;;;73.15;37.03;;;;;;;6.54;100.00;102758.94;5075731;28;20035;-75
2023/12/15 01:33:37;;;;;;;82.40;39.25;;;;;;;6.61;100.00;102769.41;5089357;28;20089;-76
2023/12/15 01:36:06;;;;;;;80.60;39.42;;;;;;;6.53;100.00;102770.47;5084514;28;20070;-75
2023/12/15 01:38:37;;;;;;;97.22;42.63;;;;;;;6.49;100.00;102775.78;5089758;28;20036;-76
2023/12/15 01:41:09;;;;;;;93.68;42.85;;;;;;;6.49;100.00;102783.75;5088205;28;20047;-76
2023/12/15 01:43:37;;;;;;;98.03;45.55;;;;;;;6.49;100.00;102785.53;5090740;28;20071;-76
2023/12/15 01:46:08;;;;;;;111.80;47.53;;;;;;;6.44;100.00;102796.19;5073679;28;20071;-76
2023/12/15 01:48:35;;;;;;;102.85;47.38;;;;;;;6.51;100.00;102802.25;5075472;28;20135;-76
2023/12/15 01:51:01;;;;;;;108.80;48.60;;;;;;;6.47;100.00;102817.31;5081867;28;20052;-76
2023/12/15 01:53:27;;;;;;;104.57;47.80;;;;;;;6.55;100.00;102811.91;5090223;28;20036;-75
2023/12/15 01:55:52;;;;;;;113.47;51.10;;;;;;;6.52;100.00;102804.00;5087096;28;20085;-76
2023/12/15 01:58:18;;;;;;;116.93;49.70;;;;;;;6.55;100.00;102803.09;5069049;28;20036;-76
2023/12/15 02:00:50;;;;;;;115.53;53.90;;;;;;;6.55;100.00;102811.91;5086258;28;21038;-75
2023/12/15 02:03:17;;;;;;;128.15;56.13;;;;;;;6.56;100.00;102818.09;5081524;28;20100;-76
2023/12/15 02:05:43;;;;;;;131.55;55.42;;;;;;;6.54;100.00;102820.78;5073390;28;20024;-75
2023/12/15 02:08:08;;;;;;;138.68;57.25;;;;;;;6.54;100.00;102817.25;5068722;28;20082;-77
2023/12/15 02:10:40;;;;;;;139.60;57.47;;;;;;;6.58;100.00;102817.19;5065657;28;20025;-75
2023/12/15 02:13:08;;;;;;;140.95;60.00;;;;;;;6.59;100.00;102818.06;5083727;28;20684;-77
2023/12/15 02:15:37;;;;;;;146.23;59.67;;;;;;;6.56;100.00;102839.28;5064157;28;20032;-74
2023/12/15 02:18:11;;;;;;;140.43;58.03;;;;;;;6.56;100.00;102836.66;5086776;28;20043;-76
2023/12/15 02:20:37;;;;;;;144.35;57.47;;;;;;;6.65;100.00;102844.47;5071261;28;20045;-75
2023/12/15 02:23:03;;;;;;;140.70;58.42;;;;;;;6.66;100.00;102835.63;5065552;28;20032;-75
2023/12/15 02:25:38;;;;;;;141.98;60.50;;;;;;;6.60;100.00;102851.63;5063004;28;20059;-75
2023/12/15 02:28:07;;;;;;;149.30;59.83;;;;;;;6.66;100.00;102854.16;5080606;28;20043;-74
2023/12/15 02:30:36;;;;;;;138.32;58.38;;;;;;;6.69;100.00;102859.44;5077843;28;20064;-75
2023/12/15 02:33:01;;;;;;;145.80;59.95;;;;;;;6.68;100.00;102860.34;5085317;28;20032;-75
2023/12/15 02:35:51;;;;;;;158.90;63.25;;;;;;;6.70;100.00;102864.72;5080625;28;20079;-76
2023/12/15 02:38:18;;;;;;;151.20;60.30;;;;;;;6.73;100.00;102869.97;5068144;28;20552;-74
2023/12/15 02:40:44;;;;;;;152.07;63.60;;;;;;;6.70;100.00;102869.13;5076633;28;20063;-75
2023/12/15 02:43:13;;;;;;;163.38;62.13;;;;;;;6.70;100.00;102872.66;5080379;28;20036;-75
2023/12/15 02:45:39;;;;;;;161.38;60.72;;;;;;;6.73;100.00;102869.97;5082447;28;21359;-75
2023/12/15 02:48:08;;;;;;;144.77;61.25;;;;;;;6.72;100.00;102873.50;5087312;28;20032;-75
2023/12/15 02:50:33;;;;;;;155.18;60.70;;;;;;;6.74;100.00;102878.81;5081934;27;20145;-75
2023/12/15 02:52:59;;;;;;;167.63;63.53;;;;;;;6.81;100.00;102885.75;5079279;28;20047;-75
2023/12/15 02:55:25;;;;;;;161.35;63.22;;;;;;;6.76;100.00;102877.00;5076544;28;20540;-76
2023/12/15 02:57:50;;;;;;;167.20;61.33;;;;;;;6.77;100.00;102885.81;5069498;28;20101;-74
2023/12/15 03:00:18;;;;;;;160.00;60.75;;;;;;;6.78;100.00;102890.22;5071547;28;20776;-75
2023/12/15 03:02:44;;;;;;;163.13;61.20;;;;;;;6.77;100.00;102896.44;5089356;28;21141;-76
2023/12/15 03:05:09;;;;;;;164.68;63.15;;;;;;;6.80;100.00;102904.34;5088577;28;20036;-76
2023/12/15 03:07:38;;;;;;;162.63;63.05;;;;;;;6.82;100.00;102898.09;5083393;28;20476;-75
2023/12/15 03:10:07;;;;;;;178.88;63.70;;;;;;;6.80;100.00;102904.34;5067177;28;20032;-75
2023/12/15 03:12:34;;;;;;;184.15;67.00;;;;;;;6.84;100.00;102901.63;5065407;28;20088;-75
2023/12/15 03:15:06;;;;;;;179.70;64.88;;;;;;;6.86;100.00;102912.22;5075277;28;20051;-76
2023/12/15 03:17:36;;;;;;;181.95;65.55;;;;;;;6.86;100.00;102912.22;5081939;28;21051;-75
2023/12/15 03:20:06;;;;;;;196.13;67.55;;;;;;;6.81;100.00;102919.34;5093028;28;20275;-75
2023/12/15 03:22:36;;;;;;;189.55;67.43;;;;;;;6.90;100.00;102912.16;5082066;28;20036;-75
2023/12/15 03:25:07;;;;;;;200.45;66.38;;;;;;;6.85;100.00;102908.69;5082354;28;20024;-75
2023/12/15 03:27:33;;;;;;;193.57;68.22;;;;;;;6.87;100.00;102919.25;5069389;28;20151;-75
2023/12/15 03:30:04;;;;;;;198.70;67.20;;;;;;;6.84;100.00;102925.50;5084953;28;20032;-75
2023/12/15 03:32:34;;;;;;;211.82;68.03;;;;;;;6.93;100.00;102932.47;5075537;28;20075;-75
2023/12/15 03:34:59;;;;;;;209.15;65.93;;;;;;;6.88;100.00;102931.66;5086849;28;20043;-76
2023/12/15 03:37:25;;;;;;;196.57;69.63;;;;;;;6.95;100.00;102942.13;5085429;28;20238;-75
2023/12/15 03:39:51;;;;;;;204.05;65.45;;;;;;;7.02;100.00;102937.59;5086703;28;20044;-75
2023/12/15 03:42:16;;;;;;;201.98;68.38;;;;;;;7.00;100.00;102940.28;5085553;28;20033;-75
2023/12/15 03:44:42;;;;;;;205.75;66.57;;;;;;;7.00;100.00;102944.72;5058170;28;20079;-75
2023/12/15 03:47:08;;;;;;;232.07;68.93;;;;;;;6.98;100.00;102949.19;5054239;28;20060;-75
2023/12/15 03:49:37;;;;;;;240.63;70.90;;;;;;;6.98;100.00;102954.47;5074728;28;20032;-75
2023/12/15 03:52:06;;;;;;;221.63;69.68;;;;;;;7.03;100.00;102954.38;5106594;27;20036;-75
2023/12/15 03:54:38;;;;;;;237.57;71.85;;;;;;;6.94;100.00;102953.63;5110702;27;20043;-75
2023/12/15 03:57:09;;;;;;;234.90;70.47;;;;;;;6.94;100.00;102942.16;5095941;27;20034;-75
2023/12/15 03:59:39;;;;;;;231.20;72.63;;;;;;;7.05;100.00;102957.91;5107944;27;20085;-75
2023/12/15 04:02:12;;;;;;;245.85;75.00;;;;;;;7.04;100.00;102953.50;5086828;27;20027;-76
2023/12/15 04:04:38;;;;;;;255.52;73.28;;;;;;;7.04;100.00;102956.16;5105766;27;20145;-75
2023/12/15 04:07:06;;;;;;;249.32;73.47;;;;;;;7.05;100.00;102950.81;5110606;27;20039;-75
2023/12/15 04:09:38;;;;;;;283.80;75.07;;;;;;;6.98;100.00;102960.66;5115323;27;20038;-74
2023/12/15 04:12:08;;;;;;;236.30;71.07;;;;;;;7.04;100.00;102959.69;5089388;27;20040;-75
2023/12/15 04:14:34;;;;;;;252.32;74.25;;;;;;;7.04;100.00;102966.78;5101615;27;20032;-75
2023/12/15 04:17:00;;;;;;;257.38;75.70;;;;;;;7.03;100.00;102984.47;5069868;28;20042;-76
2023/12/15 04:19:26;;;;;;;251.00;71.90;;;;;;;7.06;100.00;102970.28;5104062;27;20061;-74
2023/12/15 04:21:52;;;;;;;258.60;72.13;;;;;;;7.09;100.00;102986.16;5106172;27;20067;-76
2023/12/15 04:24:18;;;;;;;260.40;72.40;;;;;;;7.09;100.00;102987.03;5095914;27;20035;-75
2023/12/15 04:26:49;;;;;;;268.52;73.43;;;;;;;7.04;100.00;102986.22;5106052;27;20055;-75
2023/12/15 04:29:15;;;;;;;287.98;76.95;;;;;;;7.05;100.00;102979.13;5103930;27;20032;-76
2023/12/15 04:31:43;;;;;;;292.75;75.57;;;;;;;7.11;100.00;102979.03;5104654;27;20108;-76
2023/12/15 04:34:09;;;;;;;256.58;74.13;;;;;;;7.04;100.00;102991.53;5088295;27;20032;-76
2023/12/15 04:36:39;;;;;;;305.02;81.85;;;;;;;7.06;100.00;102989.72;5093416;27;20032;-76
2023/12/15 04:39:08;;;;;;;276.48;76.72;;;;;;;7.11;100.00;102994.97;5106561;27;20047;-76
2023/12/15 04:41:33;;;;;;;277.17;73.47;;;;;;;7.12;100.00;102994.94;5099964;27;20116;-74
2023/12/15 04:44:03;;;;;;;258.55;73.72;;;;;;;7.06;100.00;103002.09;5106863;27;20044;-77
2023/12/15 04:46:33;;;;;;;258.77;74.72;;;;;;;7.11;100.00;103005.56;5081556;27;20045;-76
2023/12/15 04:49:09;;;;;;;282.33;75.57;;;;;;;7.13;100.00;103002.00;5084145;27;20028;-76
2023/12/15 04:51:44;;;;;;;283.92;75.35;;;;;;;7.17;100.00;103000.16;5091702;27;20052;-77
2023/12/15 04:54:10;;;;;;;271.70;76.22;;;;;;;7.13;100.00;103006.41;5095825;27;20027;-77
2023/12/15 04:56:38;;;;;;;273.40;75.75;;;;;;;7.12;100.00;103009.97;5098790;27;20588;-76
2023/12/15 04:59:04;;;;;;;284.10;75.88;;;;;;;7.14;100.00;103019.69;5092571;27;20039;-76
2023/12/15 05:01:30;;;;;;;246.73;72.72;;;;;;;7.18;100.00;103017.88;5104452;27;20043;-77
2023/12/15 05:03:55;;;;;;;266.23;76.38;;;;;;;7.15;100.00;103021.44;5106405;27;20715;-76
2023/12/15 05:06:22;;;;;;;280.92;77.63;;;;;;;7.17;100.00;103026.69;5085372;28;20119;-76
2023/12/15 05:08:55;;;;;;;259.52;76.43;;;;;;;7.23;100.00;103035.47;5095481;27;20036;-77
2023/12/15 05:11:21;;;;;;;267.85;73.53;;;;;;;7.17;100.00;103035.53;5096721;27;20032;-76
2023/12/15 05:13:49;;;;;;;271.63;74.60;;;;;;;7.20;100.00;103034.63;5084116;27;20044;-75
2023/12/15 05:16:15;;;;;;;263.38;75.43;;;;;;;7.26;100.00;103039.84;5091955;27;20070;-76
2023/12/15 05:18:40;;;;;;;302.30;78.75;;;;;;;7.20;100.00;103034.63;5103510;27;20051;-74
2023/12/15 05:21:06;;;;;;;268.92;77.75;;;;;;;7.28;100.00;103035.41;5081477;27;20586;-76
2023/12/15 05:23:39;;;;;;;282.27;77.28;;;;;;;7.29;100.00;103046.91;5106431;27;20467;-77
2023/12/15 05:26:11;;;;;;;280.25;76.80;;;;;;;7.27;100.00;103052.22;5100555;27;20030;-77
2023/12/15 05:28:39;;;;;;;273.77;76.35;;;;;;;7.24;100.00;103060.22;5108431;27;20036;-76
2023/12/15 05:31:06;;;;;;;281.83;79.20;;;;;;;7.31;100.00;103055.69;5092041;27;20035;-75
2023/12/15 05:33:38;;;;;;;265.83;75.32;;;;;;;7.28;100.00;103069.91;5073093;27;20036;-76
2023/12/15 05:36:07;;;;;;;297.13;82.45;;;;;;;7.25;100.00;103075.25;5102988;27;20035;-76
2023/12/15 05:38:33;;;;;;;303.17;81.88;;;;;;;7.27;100.00;103061.03;5105802;27;20533;-77
2023/12/15 05:41:11;;;;;;;290.02;81.63;;;;;;;7.30;100.00;103057.47;5104964;27;20030;-75
2023/12/15 05:43:36;;;;;;;287.23;78.45;;;;;;;7.27;100.00;103063.69;5092872;27;20105;-76
2023/12/15 05:46:11;;;;;;;283.13;82.00;;;;;;;7.28;100.00;103061.94;5106905;27;20840;-75
2023/12/15 05:48:36;;;;;;;286.30;78.15;;;;;;;7.22;100.00;103062.88;5100266;27;20062;-75
2023/12/15 05:51:07;;;;;;;281.08;79.82;;;;;;;7.25;100.00;103062.84;5090853;27;20048;-75
2023/12/15 05:53:36;;;;;;;251.98;74.78;;;;;;;7.24;100.00;103070.84;5098259;27;20028;-75
2023/12/15 05:56:04;;;;;;;251.68;71.95;;;;;;;7.29;100.00;103076.97;5105798;27;20036;-74
2023/12/15 05:58:31;;;;;;;251.63;74.55;;;;;;;7.25;100.00;103077.91;5099641;27;20032;-75
2023/12/15 06:00:57;;;;;;;274.00;75.18;;;;;;;7.14;100.00;103072.75;5078488;28;20066;-75
2023/12/15 06:03:23;;;;;;;224.40;68.60;;;;;;;7.03;100.00;103074.66;5091042;27;31117;-75
2023/12/15 06:05:51;;;;;;;248.43;71.47;;;;;;;7.00;100.00;103078.22;5095837;27;20032;-75
2023/12/15 06:08:17;;;;;;;199.60;66.35;;;;;;;7.06;100.00;103093.16;5101889;27;20139;-79
2023/12/15 06:10:42;;;;;;;209.35;66.80;;;;;;;7.12;100.00;103108.13;5100283;27;20823;-77
2023/12/15 06:13:09;;;;;;;172.55;59.33;;;;;;;7.15;100.00;103113.41;5083154;27;20032;-76
2023/12/15 06:15:40;;;;;;;181.25;61.17;;;;;;;7.20;100.00;103091.22;5106933;27;20035;-76
2023/12/15 06:18:06;;;;;;;172.20;58.20;;;;;;;7.13;100.00;103083.34;5083359;27;20752;-76
2023/12/15 06:20:34;;;;;;;198.82;60.95;;;;;;;7.19;100.00;103088.59;5097743;27;20495;-76
2023/12/15 06:23:04;;;;;;;192.80;61.95;;;;;;;7.12;100.00;103101.03;5085043;27;20027;-77
2023/12/15 06:25:36;;;;;;;197.05;64.28;;;;;;;7.14;100.00;103099.28;5072718;27;20111;-76
2023/12/15 06:28:07;;;;;;;203.85;66.70;;;;;;;7.17;100.00;103106.28;5103251;27;20163;-76
2023/12/15 06:30:39;;;;;;;205.27;67.30;;;;;;;7.14;100.00;103109.88;5089283;27;20058;-75
2023/12/15 06:33:08;;;;;;;231.50;69.13;;;;;;;7.12;100.00;103111.66;5088645;27;20035;-76
2023/12/15 06:35:34;;;;;;;240.63;73.07;;;;;;;7.19;100.00;103121.31;5105016;27;20059;-76
2023/12/15 06:38:08;;;;;;;242.73;74.13;;;;;;;7.14;100.00;103124.94;5100515;27;20032;-77
2023/12/15 06:40:34;;;;;;;216.30;67.45;;;;;;;7.10;100.00;103131.16;5095286;27;20092;-76
2023/12/15 06:43:04;;;;;;;211.68;67.95;;;;;;;7.10;100.00;103126.72;5107514;27;20035;-77
2023/12/15 06:45:30;;;;;;;194.50;64.72;;;;;;;7.19;100.00;103144.31;5105042;27;20131;-77
2023/12/15 06:48:04;;;;;;;198.60;62.92;;;;;;;7.26;100.00;103138.03;5112338;27;20324;-76
2023/12/15 06:50:34;;;;;;;209.93;65.80;;;;;;;7.23;100.00;103146.91;5093159;28;20065;-77
2023/12/15 06:53:09;;;;;;;216.27;66.50;;;;;;;7.33;100.00;103157.41;5089370;27;20028;-76
2023/12/15 06:55:35;;;;;;;250.35;74.70;;;;;;;7.33;100.00;103157.41;5089922;28;20036;-77
2023/12/15 06:58:04;;;;;;;260.30;73.47;;;;;;;7.38;100.00;103163.53;5084792;28;20040;-77
2023/12/15 07:00:30;;;;;;;272.63;76.97;;;;;;;7.42;100.00;103159.94;5092177;28;20048;-77
2023/12/15 07:03:01;;;;;;;251.48;73.72;;;;;;;7.46;100.00;103172.28;5087505;27;20476;-76
2023/12/15 07:05:27;;;;;;;262.52;78.05;;;;;;;7.45;100.00;103158.13;5088226;28;20090;-76
2023/12/15 07:07:55;;;;;;;286.15;79.32;;;;;;;7.39;100.00;103162.66;5082922;27;20033;-76
2023/12/15 07:10:20;;;;;;;297.88;82.88;;;;;;;7.41;100.00;103171.47;5084799;28;20068;-76
2023/12/15 07:12:51;;;;;;;313.83;82.82;;;;;;;7.36;100.00;103171.50;5087992;28;20378;-76
2023/12/15 07:15:20;;;;;;;302.58;81.95;;;;;;;7.43;100.00;103172.31;5087337;28;20933;-76
2023/12/15 07:17:45;;;;;;;294.17;78.88;;;;;;;7.41;100.00;103166.16;5087426;28;20040;-76
2023/12/15 07:20:14;;;;;;;295.95;79.97;;;;;;;7.39;100.00;103176.81;5080230;27;20040;-76
2023/12/15 07:22:39;;;;;;;293.65;79.57;;;;;;;7.47;100.00;103196.13;5094409;27;20097;-76
2023/12/15 07:25:09;;;;;;;318.73;86.90;;;;;;;7.45;100.00;103189.09;5084635;28;20109;-76
2023/12/15 07:27:36;;;;;;;315.38;81.65;;;;;;;7.49;100.00;103186.41;5092863;27;21309;-76
2023/12/15 07:30:08;;;;;;;328.88;83.20;;;;;;;7.48;100.00;103189.97;5084343;28;20518;-76
2023/12/15 07:32:34;;;;;;;;;;;;;;;7.51;100.00;103195.22;5093351;28;20036;-76
2023/12/15 07:35:12;;;;;;;265.92;74.88;;;;;;;7.53;100.00;103195.22;5091655;28;21402;-77
2023/12/15 07:37:38;;;;;;;293.52;76.95;;;;;;;7.48;100.00;103203.22;5087702;28;20036;-77
2023/12/15 07:40:07;;;;;;;301.50;77.85;;;;;;;7.50;100.00;103197.91;5087813;28;20078;-75
2023/12/15 07:42:33;;;;;;;267.73;76.57;;;;;;;7.53;100.00;103208.50;5085176;28;20067;-77
2023/12/15 07:45:08;;;;;;;269.88;75.70;;;;;;;7.57;100.00;103207.53;5089747;28;20203;-76
2023/12/15 07:47:33;;;;;;;267.05;73.38;;;;;;;7.61;100.00;103216.34;5092665;28;20065;-77
2023/12/15 07:50:04;;;;;;;255.40;73.75;;;;;;;7.58;100.00;103206.66;5096069;27;20049;-76
2023/12/15 07:52:39;;;;;;;290.60;77.47;;;;;;;7.58;100.00;103217.28;5092981;27;20558;-77
2023/12/15 07:55:08;;;;;;;251.43;75.65;;;;;;;7.59;100.00;103221.69;5106924;27;20032;-76
2023/12/15 07:57:36;;;;;;;268.02;73.25;;;;;;;7.65;100.00;103218.94;5109464;27;20044;-76
2023/12/15 08:00:12;;;;;;;266.13;75.13;;;;;;;7.66;100.00;103219.81;5087735;27;20048;-76
2023/12/15 08:02:39;;;;;;;235.35;71.43;;;;;;;7.69;100.00;103227.75;5109234;27;20039;-76
2023/12/15 08:05:09;;;;;;;250.43;74.00;;;;;;;7.72;100.00;103239.19;5091721;27;20983;-76
2023/12/15 08:07:38;;;;;;;250.63;72.35;;;;;;;7.72;100.00;103243.63;5091166;27;20071;-76
2023/12/15 08:10:07;;;;;;;224.25;71.68;;;;;;;7.73;100.00;103242.72;5088509;27;20035;-77
2023/12/15 08:12:33;;;;;;;223.23;68.30;;;;;;;7.77;100.00;103245.31;5091377;27;20851;-76
2023/12/15 08:15:15;;;;;;;220.48;68.70;;;;;;;7.79;100.00;103247.97;5109947;27;20034;-77
2023/12/15 08:17:40;;;;;;;224.23;69.47;;;;;;;7.78;100.00;103249.75;5107283;27;20178;-76
2023/12/15 08:20:07;;;;;;;212.55;65.97;;;;;;;7.87;100.00;103250.53;5070331;27;20032;-76
2023/12/15 08:22:33;;;;;;;222.30;69.68;;;;;;;7.91;100.00;103261.09;5108963;27;20059;-76
2023/12/15 08:25:10;;;;;;;213.15;66.97;;;;;;;7.97;100.00;103266.31;5110909;27;20031;-77
2023/12/15 08:27:40;;;;;;;210.52;66.05;;;;;;;7.89;100.00;103264.69;5074961;27;20052;-76
2023/12/15 08:30:10;;;;;;;198.40;64.97;;;;;;;7.91;100.00;103265.53;5088491;27;20956;-77
2023/12/15 08:32:36;;;;;;;199.13;65.75;;;;;;;7.89;100.00;103268.22;5092551;27;20031;-77
2023/12/15 08:35:08;;;;;;;210.55;70.63;;;;;;;7.95;100.00;103268.13;5091169;27;20056;-76
2023/12/15 08:37:35;;;;;;;213.82;68.18;;;;;;;7.98;100.00;103269.84;5110170;27;20032;-77
2023/12/15 08:40:01;;;;;;;210.48;65.60;;;;;;;8.00;100.00;103276.03;5095893;27;20967;-76
2023/12/15 08:42:27;;;;;;;191.95;65.88;;;;;;;7.96;100.00;103279.63;5086943;27;20031;-76
2023/12/15 08:44:53;;;;;;;193.35;65.40;;;;;;;8.02;100.00;103284.84;5109110;27;20051;-76
2023/12/15 08:47:21;;;;;;;197.02;64.57;;;;;;;7.96;100.00;103282.28;5088090;27;20092;-77
2023/12/15 08:49:50;;;;;;;201.75;67.03;;;;;;;7.96;100.00;103292.91;5091801;27;20043;-77
2023/12/15 08:52:16;;;;;;;189.90;64.05;;;;;;;8.02;100.00;103295.47;5106336;27;20038;-76
2023/12/15 08:54:41;;;;;;;192.93;63.97;;;;;;;8.02;100.00;103306.09;5108663;27;20067;-76
2023/12/15 08:57:10;;;;;;;165.88;61.63;;;;;;;8.03;100.00;103302.53;5103659;27;20553;-77
2023/12/15 08:59:36;;;;;;;191.18;63.63;;;;;;;8.08;100.00;103302.50;5097095;27;20028;-78
2023/12/15 09:02:07;;;;;;;186.32;62.13;;;;;;;8.09;100.00;103305.16;5093306;27;20109;-76
2023/12/15 09:04:36;;;;;;;199.63;62.88;;;;;;;8.00;100.00;103302.59;5098605;27;20035;-76
2023/12/15 09:07:02;;;;;;;181.43;62.13;;;;;;;8.12;100.00;103306.88;5102942;27;20044;-77
2023/12/15 09:09:34;;;;;;;172.95;59.17;;;;;;;8.15;100.00;103310.38;5097721;27;20042;-76
2023/12/15 09:12:00;;;;;;;174.25;62.38;;;;;;;8.18;100.00;103315.66;5107504;27;20080;-77
2023/12/15 09:14:28;;;;;;;191.20;63.97;;;;;;;8.17;100.00;103318.31;5093814;27;20031;-76
2023/12/15 09:17:08;;;;;;;166.18;61.15;;;;;;;8.25;100.00;103324.41;5077239;27;20028;-76
2023/12/15 09:19:34;;;;;;;175.38;62.50;;;;;;;8.27;100.00;103326.13;5103318;27;20032;-77
2023/12/15 09:22:07;;;;;;;174.63;58.15;;;;;;;8.25;100.00;103319.09;5095226;27;20130;-77
2023/12/15 09:24:40;;;;;;;154.50;58.60;;;;;;;8.31;100.00;103333.19;5082950;27;20116;-77
2023/12/15 09:27:09;;;;;;;154.80;57.72;;;;;;;8.34;100.00;103336.72;5110546;27;20045;-77
2023/12/15 09:29:35;;;;;;;162.82;57.97;;;;;;;8.39;100.00;103335.78;5105385;27;20256;-76
2023/12/15 09:32:08;;;;;;;150.02;55.45;;;;;;;8.41;100.00;103344.59;5091873;27;20035;-78
2023/12/15 09:34:44;;;;;;;;;;;;;;;;;;;;;
2023/12/15 09:37:10;;;;;;;161.10;58.17;;;;;;;8.45;100.00;103362.28;5102488;27;20110;-76
2023/12/15 09:39:39;;;;;;;155.00;56.85;;;;;;;8.52;100.00;103368.38;5104047;27;20040;-76
2023/12/15 09:42:09;;;;;;;162.63;55.80;;;;;;;8.56;100.00;103375.41;5088415;27;21247;-76
2023/12/15 09:44:37;;;;;;;138.95;53.28;;;;;;;8.58;100.00;103373.59;5101032;27;20061;-76
2023/12/15 09:47:15;;;;;;;;;;;;;;;;;;;;;
2023/12/15 09:49:43;;;;;;;121.70;50.40;;;;;;;8.61;100.00;103383.34;5106944;27;20040;-78
2023/12/15 09:52:16;;;;;;;140.82;48.92;;;;;;;8.60;100.00;103385.13;5108781;27;20036;-75
2023/12/15 09:54:42;;;;;;;144.82;51.00;;;;;;;8.62;100.00;103387.75;5091515;27;20043;-78
2023/12/15 09:57:08;;;;;;;127.63;50.75;;;;;;;8.63;100.00;103392.16;5070237;28;20036;-75
2023/12/15 09:59:37;;;;;;;121.65;50.47;;;;;;;8.73;100.00;103388.47;5098503;27;20067;-76
2023/12/15 10:02:08;;;;;;;127.72;50.83;;;;;;;8.75;100.00;103384.88;5095170;27;20530;-75
2023/12/15 10:04:34;;;;;;;121.07;47.47;;;;;;;8.86;100.00;103389.16;5103675;27;20046;-77
2023/12/15 10:07:07;;;;;;;111.05;47.35;;;;;;;8.82;100.00;103378.56;5106643;27;20153;-75
2023/12/15 10:09:38;;;;;;;111.80;47.88;;;;;;;8.93;100.00;103373.06;5087125;27;20032;-75
2023/12/15 10:12:10;;;;;;;115.22;47.58;;;;;;;8.82;100.00;103375.91;5102869;27;20036;-79
2023/12/15 10:14:39;;;;;;;112.00;45.55;;;;;;;8.92;100.00;103373.97;5099683;27;20148;-78
2023/12/15 10:17:11;;;;;;;105.28;47.35;;;;;;;8.91;100.00;103372.22;5100425;27;20024;-76
2023/12/15 10:19:37;;;;;;;112.18;44.78;;;;;;;9.02;100.00;103386.25;5108829;27;20114;-75
2023/12/15 10:22:05;;;;;;;108.38;47.15;;;;;;;9.15;100.00;103388.72;5101707;27;20028;-76
2023/12/15 10:24:39;;;;;;;112.10;46.13;;;;;;;9.13;100.00;103387.84;5092628;27;20081;-79
2023/12/15 10:27:10;;;;;;;110.43;43.65;;;;;;;9.13;100.00;103385.19;5107692;27;20043;-77
2023/12/15 10:29:39;;;;;;;116.07;45.38;;;;;;;9.28;100.00;103391.13;5100679;27;20646;-76
2023/12/15 10:32:10;;;;;;;98.22;43.95;;;;;;;9.23;100.00;103397.44;5087745;27;20110;-75
2023/12/15 10:34:37;;;;;;;109.10;43.17;;;;;;;9.20;100.00;103398.38;5102962;27;20032;-75
2023/12/15 10:37:10;;;;;;;99.88;42.95;;;;;;;9.12;100.00;103410.94;5104459;27;20028;-75
2023/12/15 10:39:38;;;;;;;98.70;40.95;;;;;;;9.19;100.00;103407.28;5107170;27;20983;-78
2023/12/15 10:42:09;;;;;;;88.63;39.97;;;;;;;9.24;100.00;103416.06;5070535;27;20035;-78
2023/12/15 10:44:39;;;;;;;94.25;39.65;;;;;;;9.18;100.00;103421.47;5087492;27;20043;-78
2023/12/15 10:47:09;;;;;;;93.47;40.22;;;;;;;9.13;100.00;103430.44;5091369;27;20066;-77
2023/12/15 10:49:38;;;;;;;94.30;40.45;;;;;;;9.25;100.00;103440.91;5091952;27;20036;-76
2023/12/15 10:52:06;;;;;;;90.15;37.55;;;;;;;9.23;100.00;103432.91;5105156;27;20047;-78
2023/12/15 10:54:42;;;;;;;86.72;37.63;;;;;;;9.28;100.00;103424.88;5109199;27;20032;-75
2023/12/15 10:57:10;;;;;;;84.65;36.70;;;;;;;9.26;100.00;103418.69;5089802;27;20059;-76
2023/12/15 10:59:39;;;;;;;76.50;34.85;;;;;;;9.29;100.00;103416.88;5091340;27;20044;-77
2023/12/15 11:02:11;;;;;;;92.30;35.05;;;;;;;9.25;100.00;103412.50;5093612;27;20032;-78
2023/12/15 11:04:40;;;;;;;82.75;36.17;;;;;;;9.31;100.00;103416.84;5100257;27;20028;-74
2023/12/15 11:07:09;;;;;;;79.13;34.28;;;;;;;9.33;100.00;103423.00;5108775;27;20047;-77
2023/12/15 11:09:36;;;;;;;76.68;31.92;;;;;;;9.32;100.00;103426.56;5105681;27;20035;-77
2023/12/15 11:12:24;;;;;;;72.65;34.85;;;;;;;9.31;100.00;103433.69;5109016;27;20036;-78